Weather observations for the past three days for
Hattiesburg/Laurel, Hattiesburg-Laurel Regional Airport
Metric (Imperial)
Date Time (cdt) Wind (kph) Vis. (km) Weather Sky Cond. Temperature (ºC) Relative Humidity Wind Chill (°C) Heat Index (°C) Pressure Precipitation (cm)
Air Dwpt 6 hour altimeter (cm) sea level (mb) 1 hr 3 hr 6 hr
Max. Min.
10 06:56 N 7 14.48 Overcast SCT007 OVC045 18.3 18.3 18.3 17.2 100% 76.25 1016.5
10 05:56 Calm 16.09 Overcast BKN007 OVC049 17.8 17.8 100% 76.17 1015.4
10 04:56 N 6 12.87 Overcast OVC007 17.8 17.8 100% 76.12 1014.8
10 03:56 Calm 12.87 Overcast FEW002 OVC011 17.8 17.8 100% 76.12 1014.7
10 02:56 Calm 3.22 Fog/Mist FEW001 OVC015 17.8 17.8 100% 76.1 1014.2
10 01:56 Calm 0.80 Fog OVC001 17.2 17.2 100% 76.07 1013.9
10 00:56 Calm 1.21 Fog/Mist OVC001 17.2 17.2 19.4 17.2 100% 76.05 1013.7
09 23:56 Calm 11.27 A Few Clouds FEW001 17.8 17.8 100% 76.07 1014.1
09 22:56 Calm 12.87 Partly Cloudy SCT100 17.8 17.8 100% 76.12 1014.6
09 21:56 Calm 16.09 Mostly Cloudy BKN100 18.3 18.3 100% 76.12 1014.7
09 20:56 Calm 16.09 A Few Clouds FEW110 18.3 18.3 100% 76.1 1014.3
09 19:56 Calm 16.09 Overcast OVC015 18.9 18.9 100% 76.05 1013.6
09 18:56 S 6 16.09 Overcast OVC016 19.4 19.4 20 18.9 100% 76 1013.1
09 17:56 S 6 16.09 Overcast OVC014 20 19.4 96% 75.97 1012.7
09 16:56 S 9 16.09 Overcast BKN010 OVC014 20 19.4 96% 75.95 1012.1
09 15:56 S 6 16.09 Overcast OVC014 20 19.4 96% 75.95 1012.1
09 14:56 Vrbl 7 16.09 Overcast OVC012 20 19.4 96% 75.95 1012.3
09 13:56 SW 7 16.09 Overcast OVC010 20 19.4 96% 75.97 1012.7
09 12:56 Calm 16.09 Overcast OVC008 18.9 18.9 18.9 17.2 100% 75.97 1012.6 0.94
09 11:56 Calm 16.09 Overcast OVC008 18.9 18.9 100% 76.05 1013.8
09 10:56 Calm 16.09 Overcast OVC004 17.8 17.8 100% 76.05 1013.7
09 09:56 Calm 16.09 Partly Cloudy SCT004 17.8 17.8 100% 76.02 1013.2 0.03 0.94
09 08:56 SE 13 16.09 Overcast FEW004 BKN065 OVC090 17.2 17.2 100% 75.97 1012.6 0.41
09 07:56 SE 9 6.44 Fog/Mist OVC070 17.2 17.2 100% 76.05 1013.9 0.51
09 06:56 N 17 9.66 Rain Fog/Mist FEW008 BKN034 OVC055 17.2 17.2 17.8 17.2 100% 76.05 1013.7 1.55 1.57
09 05:56 Calm 2.41 Thunderstorm in Vicinity Light Rain Fog/Mist OVC003 17.8 17.8 100% 75.92 1012.0 0.03
09 04:56 NE 6 0.80 Light Rain Fog OVC003 17.8 17.8 100% 75.84 1011.1
09 03:56 Calm 0.40 Rain Fog OVC003 17.2 17.2 100% 75.82 1010.7
09 02:56 E 6 2.41 Fog/Mist OVC003 17.8 17.8 100% 75.9 1011.6
09 01:56 Calm 0.80 Fog OVC003 17.2 17.2 100% 75.92 1012.1
09 00:56 Calm 2.41 Fog/Mist OVC003 17.2 17.2 17.8 16.7 100% 75.97 1012.9
08 23:56 SE 9 0.80 Fog OVC001 17.2 17.2 100% 75.97 1012.8
08 22:56 SE 6 0.80 Fog OVC001 17.2 17.2 100% 75.97 1012.7
08 21:56 Calm 0.80 Fog OVC001 16.7 16.7 100% 75.97 1012.6
08 20:56 N 7 6.44 Fog/Mist OVC001 17.2 17.2 100% 75.95 1012.3
08 19:56 NW 6 16.09 Mostly Cloudy BKN009 17.8 17.8 100% 76 1012.9
08 18:56 Calm 16.09 Overcast BKN005 OVC010 18.3 18.3 18.3 16.1 100% 75.95 1012.5 0.86
08 17:56 S 9 16.09 Overcast OVC003 17.8 17.8 100% 75.97 1012.9
08 16:56 S 9 14.48 Overcast OVC003 17.2 17.2 100% 75.97 1012.8 0.08
08 15:56 SE 17 6.44 Fog/Mist OVC003 16.7 16.7 100% 76.05 1013.6 0.23 0.79
08 14:56 S 6 8.05 Fog/Mist BKN003 OVC070 16.1 16.1 100% 76.17 1015.5 0.25
08 13:56 N 6 8.05 Fog/Mist OVC003 16.1 16.1 100% 76.12 1014.8 0.3
08 12:56 S 17 12.87 Overcast FEW050 SCT070 OVC095 16.1 16.1 17.8 16.1 100% 76.2 1015.8 0.33 0.71
08 11:56 N 11 9.66 Thunderstorm Fog/Mist SCT039 BKN049 OVC070 16.7 16.7 100% 76.3 1017.1 0.36
08 10:56 N 6 16.09 Thunderstorm in Vicinity Light Rain FEW033 BKN060 OVC070 16.7 16.7 100% 76.3 1017.2 0.03
08 09:56 E 6 16.09 A Few Clouds FEW050 17.2 15.6 90% 76.23 1016.2
08 08:56 E 7 16.09 Fair CLR 17.2 16.1 93% 76.25 1016.3
08 07:56 NE 9 16.09 Fair CLR 16.7 16.7 100% 76.25 1016.4
08 06:56 N 6 12.87 Fair CLR 16.1 16.1 16.1 15.6 100% 76.3 1017.2
08 05:56 Calm 14.48 Fair CLR 16.1 16.1 100% 76.25 1016.3
08 04:56 N 6 12.87 Fair CLR 16.1 16.1 100% 76.17 1015.3
08 03:56 N 6 14.48 Fair CLR 16.1 16.1 100% 76.15 1014.8
08 02:56 Calm 14.48 Fair CLR 16.1 16.1 100% 76.2 1015.7
08 01:56 Calm 11.27 Fair CLR 16.1 16.1 100% 76.17 1015.4
08 00:56 Calm 12.87 Fair CLR 16.1 16.1 19.4 16.1 100% 76.17 1015.5
07 23:56 Calm 16.09 Fair CLR 16.7 16.7 100% 76.2 1015.7
07 22:56 Calm 16.09 Fair CLR 16.7 16.7 100% 76.23 1016.1
07 21:56 Calm 16.09 Fair CLR 17.2 17.2 100% 76.25 1016.6
07 20:56 NE 6 16.09 Fair CLR 17.2 17.2 100% 76.17 1015.5
07 19:56 N 6 16.09 Mostly Cloudy BKN018 18.3 17.2 93% 76.2 1015.7
07 18:56 N 7 16.09 Overcast OVC018 19.4 17.2 22.8 19.4 87% 76.17 1015.3
07 17:56 N 11 16.09 Overcast OVC018 19.4 16.7 84% 76.17 1015.4
07 16:56 N 13 16.09 Overcast OVC022 20.6 17.2 81% 76.17 1015.3
07 15:56 N 13 16.09 Overcast OVC020 21.1 17.8 82% 76.15 1015.0
07 14:56 N 15 16.09 Overcast OVC020 21.7 17.8 79% 76.15 1015.1
07 13:56 N 15 16.09 Overcast OVC018 22.2 17.8 76% 76.15 1015.1
07 12:56 N 11 16.09 Overcast OVC018 22.2 18.9 22.8 16.7 82% 76.17 1015.3
07 11:56 N 13 16.09 Mostly Cloudy BKN016 22.2 18.9 82% 76.2 1015.7
07 10:56 Vrbl 7 16.09 Overcast OVC008 19.4 18.3 93% 76.23 1015.9
07 09:56 N 9 16.09 Overcast OVC004 17.8 17.8 100% 76.2 1015.7
07 08:56 NW 9 4.02 Fog/Mist OVC002 17.2 17.2 100% 76.23 1015.9
07 07:56 NW 13 2.41 Fog/Mist OVC002 17.2 17.2 100% 76.15 1015.1
Date Time (cdt) Wind (kph) Vis. (km) Weather Sky Cond. Air Dwpt Max. Min. Relative Humidity Wind Chill (°C) Heat Index (°C) altimeter (cm) sea level (mb) 1 hr 3 hr 6 hr
6 hour
Temperature (ºC) Pressure Precipitation (cm)